Time;durP1;ratioP1;P1;durP2;ratioP2;P2;SDS_P1;SDS_P2;PMS_P1;PMS_P2;Temp;Humidity;BMP_temperature;BMP_pressure;BME280_temperature;BME280_humidity;BME280_pressure;Samples;Min_cycle;Max_cycle;Signal;HPM_P1;HPM_P2
2023/01/30 00:00:51;;;;;;;59.05;35.72;;;5.50;99.90;;;;;;5066822;28;20397;-56
2023/01/30 00:03:17;;;;;;;55.70;36.53;;;5.50;99.90;;;;;;5067105;28;20052;-55
2023/01/30 00:05:43;;;;;;;59.03;36.53;;;5.50;99.90;;;;;;5065292;28;20029;-54
2023/01/30 00:08:08;;;;;;;60.33;37.53;;;5.50;99.90;;;;;;5066829;28;20094;-52
2023/01/30 00:10:34;;;;;;;67.67;36.67;;;5.60;99.90;;;;;;5068250;28;20041;-53
2023/01/30 00:12:59;;;;;;;55.03;35.27;;;5.50;99.90;;;;;;5067372;28;20404;-55
2023/01/30 00:15:25;;;;;;;60.03;36.00;;;5.50;99.90;;;;;;5067894;28;20076;-52
2023/01/30 00:17:50;;;;;;;57.90;36.77;;;5.60;99.90;;;;;;5067500;28;20036;-53
2023/01/30 00:20:16;;;;;;;54.77;35.33;;;5.60;99.90;;;;;;5069173;28;20562;-56
2023/01/30 00:22:42;;;;;;;58.67;35.37;;;5.60;99.90;;;;;;5071341;28;20043;-56
2023/01/30 00:25:07;;;;;;;54.53;34.93;;;5.70;99.90;;;;;;5071696;28;20031;-52
2023/01/30 00:27:33;;;;;;;57.25;36.17;;;5.70;99.90;;;;;;5071185;28;20028;-53
2023/01/30 00:29:59;;;;;;;51.97;33.63;;;5.70;99.90;;;;;;5071959;28;20040;-53
2023/01/30 00:32:25;;;;;;;58.35;33.22;;;5.80;99.90;;;;;;5071485;28;20486;-55
2023/01/30 00:34:51;;;;;;;49.00;33.38;;;5.80;99.90;;;;;;5070908;28;20049;-53
2023/01/30 00:37:17;;;;;;;52.53;34.40;;;5.80;99.90;;;;;;5071129;28;20102;-54
2023/01/30 00:39:42;;;;;;;58.80;34.87;;;5.90;99.90;;;;;;5071615;28;20036;-54
2023/01/30 00:47:37;;;;;;;52.63;32.65;;;6.00;99.90;;;;;;5070725;28;20052;-57
2023/01/30 00:50:03;;;;;;;51.17;32.50;;;6.00;99.90;;;;;;5071048;28;20045;-55
2023/01/30 00:52:29;;;;;;;51.25;31.08;;;6.00;99.90;;;;;;5071816;28;20524;-55
2023/01/30 00:54:54;;;;;;;50.40;32.00;;;6.10;99.90;;;;;;5070621;28;20037;-52
2023/01/30 00:57:20;;;;;;;50.75;33.60;;;6.10;99.90;;;;;;5069546;28;20106;-53
2023/01/30 00:59:45;;;;;;;51.00;31.13;;;6.10;99.90;;;;;;5070706;28;20460;-56
2023/01/30 01:02:11;;;;;;;56.33;33.47;;;6.10;99.90;;;;;;5070563;28;20433;-56
2023/01/30 01:04:42;;;;;;;49.70;31.03;;;6.20;99.90;;;;;;5068281;28;20036;-53
2023/01/30 01:07:12;;;;;;;41.05;28.27;;;6.20;99.90;;;;;;5069503;28;20425;-53
2023/01/30 01:09:38;;;;;;;53.72;32.42;;;6.20;99.90;;;;;;5070682;28;20036;-52
2023/01/30 01:12:04;;;;;;;52.53;32.78;;;6.20;99.90;;;;;;5070945;28;20036;-54
2023/01/30 01:14:30;;;;;;;;;;;6.20;99.90;;;;;;5070219;28;20044;-56
2023/01/30 01:16:55;;;;;;;51.13;32.20;;;6.30;99.90;;;;;;5070322;28;19927;-55
2023/01/30 01:19:21;;;;;;;46.73;31.13;;;6.30;99.90;;;;;;5070749;28;20094;-53
2023/01/30 01:21:47;;;;;;;52.00;31.77;;;6.30;99.90;;;;;;5070668;28;20043;-53
2023/01/30 01:24:14;;;;;;;53.10;31.87;;;6.30;99.90;;;;;;5069993;28;20317;-52
2023/01/30 01:26:40;;;;;;;48.45;30.27;;;6.30;99.90;;;;;;5070559;28;20036;-52
2023/01/30 01:29:08;;;;;;;50.30;31.48;;;6.30;99.90;;;;;;5069310;28;20044;-56
2023/01/30 01:31:33;;;;;;;51.15;32.55;;;6.30;99.90;;;;;;5065977;28;20040;-55
2023/01/30 01:33:59;;;;;;;50.10;33.07;;;6.30;99.90;;;;;;5069002;28;20040;-54
2023/01/30 01:36:24;;;;;;;57.77;33.53;;;6.30;99.90;;;;;;5070559;28;20071;-55
2023/01/30 01:38:50;;;;;;;57.07;34.57;;;6.30;99.90;;;;;;5070092;28;20036;-53
2023/01/30 01:41:16;;;;;;;53.10;33.77;;;6.30;99.90;;;;;;5070095;28;20417;-56
2023/01/30 01:44:06;;;;;;;56.35;32.45;;;6.30;99.90;;;;;;5066427;28;20028;-53
2023/01/30 01:46:38;;;;;;;52.47;32.65;;;6.20;99.90;;;;;;5070147;28;20032;-52
2023/01/30 01:49:19;;;;;;;55.13;35.15;;;6.30;99.90;;;;;;5069590;28;20448;-54
2023/01/30 01:51:57;;;;;;;56.10;33.65;;;6.20;99.90;;;;;;5069776;28;20055;-55
2023/01/30 01:54:39;;;;;;;59.05;34.63;;;6.20;99.90;;;;;;5069461;28;20041;-55
2023/01/30 01:57:10;;;;;;;61.25;34.30;;;6.20;99.90;;;;;;5069682;28;20082;-55
2023/01/30 02:00:10;;;;;;;63.13;35.50;;;6.20;99.90;;;;;;5069722;28;20079;-52
2023/01/30 02:02:36;;;;;;;58.42;32.65;;;6.20;99.90;;;;;;5069251;28;20040;-53
2023/01/30 02:05:03;;;;;;;;;;;6.20;99.90;;;;;;5070096;28;20036;-54
2023/01/30 02:07:38;;;;;;;46.25;28.67;;;6.20;99.90;;;;;;5069940;28;20455;-56
2023/01/30 02:10:06;;;;;;;48.55;30.40;;;6.20;99.90;;;;;;5069882;28;20040;-53
2023/01/30 02:12:32;;;;;;;55.47;28.90;;;6.30;99.90;;;;;;5069995;28;20116;-57
2023/01/30 02:14:59;;;;;;;43.40;27.10;;;6.30;99.90;;;;;;5068765;28;20107;-54
2023/01/30 02:17:24;;;;;;;41.85;23.98;;;6.30;99.90;;;;;;5069422;28;20603;-54
2023/01/30 02:19:59;;;;;;;33.93;21.07;;;6.40;99.90;;;;;;5069285;28;20107;-57
2023/01/30 02:22:36;;;;;;;37.10;19.98;;;6.40;99.90;;;;;;5069685;28;20111;-52
2023/01/30 02:25:14;;;;;;;32.17;18.98;;;6.40;99.90;;;;;;5067692;28;20039;-55
2023/01/30 02:28:02;;;;;;;34.00;19.52;;;6.50;99.90;;;;;;5069034;28;20041;-55
2023/01/30 02:31:05;;;;;;;27.70;17.98;;;6.50;99.90;;;;;;5068742;28;20044;-56
2023/01/30 02:33:46;;;;;;;25.27;16.13;;;6.60;99.90;;;;;;5068894;28;20043;-54
2023/01/30 02:36:26;;;;;;;26.10;15.55;;;6.60;99.90;;;;;;5067795;28;20390;-56
2023/01/30 02:39:23;;;;;;;21.02;13.55;;;6.60;99.90;;;;;;5068461;28;20123;-53
2023/01/30 02:41:59;;;;;;;25.02;14.50;;;6.70;99.90;;;;;;5068354;28;20041;-54
2023/01/30 02:44:49;;;;;;;21.33;13.15;;;6.70;99.90;;;;;;5067760;28;20044;-56
2023/01/30 02:47:27;;;;;;;19.85;12.70;;;6.70;99.90;;;;;;5067737;28;20599;-55
2023/01/30 02:50:06;;;;;;;18.00;11.25;;;6.70;99.90;;;;;;5069037;28;20040;-55
2023/01/30 02:52:33;;;;;;;15.45;10.15;;;6.70;99.90;;;;;;5068191;28;20055;-56
2023/01/30 02:54:58;;;;;;;18.38;9.80;;;6.70;99.90;;;;;;5067662;28;20093;-53
2023/01/30 02:57:25;;;;;;;15.67;9.47;;;6.80;99.90;;;;;;5068680;28;20272;-53
2023/01/30 02:59:58;;;;;;;12.85;8.05;;;6.80;99.90;;;;;;5068556;28;20566;-56
2023/01/30 03:02:39;;;;;;;17.13;7.57;;;6.80;99.90;;;;;;5068545;28;20374;-52
2023/01/30 03:05:10;;;;;;;15.23;7.20;;;6.80;99.90;;;;;;5067922;28;20028;-53
2023/01/30 03:07:53;;;;;;;12.18;7.55;;;6.80;99.90;;;;;;5068768;28;20040;-53
2023/01/30 03:10:42;;;;;;;15.75;6.90;;;6.80;99.90;;;;;;5065838;28;20044;-53
2023/01/30 03:13:11;;;;;;;9.48;6.15;;;6.80;99.90;;;;;;5063894;28;20074;-53
2023/01/30 03:15:47;;;;;;;9.55;5.75;;;6.80;99.90;;;;;;5066563;28;20473;-54
2023/01/30 03:18:13;;;;;;;12.48;5.88;;;6.80;99.90;;;;;;5068044;28;20132;-55
2023/01/30 03:20:39;;;;;;;18.40;7.00;;;6.90;99.90;;;;;;5066978;28;20043;-52
2023/01/30 03:23:06;;;;;;;17.15;5.97;;;6.90;99.90;;;;;;5067602;28;20032;-55
2023/01/30 03:25:32;;;;;;;10.00;6.65;;;6.90;99.90;;;;;;5068604;28;20072;-54
2023/01/30 03:28:00;;;;;;;15.77;6.30;;;6.90;99.90;;;;;;5067766;28;20037;-55
2023/01/30 03:30:26;;;;;;;11.60;5.97;;;6.90;99.90;;;;;;5066200;28;20489;-53
2023/01/30 03:32:52;;;;;;;10.97;5.97;;;6.90;99.90;;;;;;5067812;28;20047;-56
2023/01/30 03:35:17;;;;;;;16.60;5.30;;;6.90;99.90;;;;;;5068669;28;20067;-56
2023/01/30 03:37:44;;;;;;;19.57;6.63;;;7.00;99.90;;;;;;5066895;28;20378;-53
2023/01/30 03:40:12;;;;;;;12.35;6.38;;;7.00;99.90;;;;;;5068236;28;20032;-55
2023/01/30 03:42:37;;;;;;;14.00;5.00;;;6.90;99.90;;;;;;5067609;28;20102;-54
2023/01/30 03:45:03;;;;;;;20.93;7.03;;;6.90;99.90;;;;;;5068033;28;20036;-53
2023/01/30 03:47:29;;;;;;;11.75;5.88;;;6.90;99.90;;;;;;5067877;28;20036;-56
2023/01/30 03:49:54;;;;;;;20.27;5.60;;;7.00;99.90;;;;;;5068431;28;20469;-55
2023/01/30 03:52:20;;;;;;;15.43;5.43;;;6.90;99.90;;;;;;5068165;28;20473;-53
2023/01/30 03:54:45;;;;;;;22.67;6.43;;;6.90;99.90;;;;;;5070072;28;20067;-55
2023/01/30 03:57:11;;;;;;;15.53;5.20;;;6.90;99.90;;;;;;5072470;28;20374;-53
2023/01/30 03:59:36;;;;;;;10.63;5.43;;;6.90;99.90;;;;;;5072822;28;20097;-55
2023/01/30 04:02:02;;;;;;;19.10;5.27;;;6.90;99.90;;;;;;5071127;28;20032;-55
2023/01/30 04:04:28;;;;;;;17.37;5.43;;;6.90;99.90;;;;;;5070636;28;20044;-56
2023/01/30 04:06:53;;;;;;;22.63;6.70;;;6.90;99.90;;;;;;5072463;28;20067;-54
2023/01/30 04:09:19;;;;;;;14.47;4.60;;;6.90;99.90;;;;;;5072287;28;20032;-56
2023/01/30 04:11:44;;;;;;;22.40;5.00;;;6.90;99.90;;;;;;5071513;28;20052;-52
2023/01/30 04:14:10;;;;;;;20.67;5.83;;;6.90;99.90;;;;;;5071523;28;20500;-54
2023/01/30 04:16:36;;;;;;;18.80;4.97;;;7.00;99.90;;;;;;5070562;28;20373;-54
2023/01/30 04:19:01;;;;;;;21.70;5.57;;;6.90;99.90;;;;;;5071753;28;20575;-57
2023/01/30 04:21:27;;;;;;;24.80;4.93;;;7.00;99.90;;;;;;5071348;28;20033;-55
2023/01/30 04:23:52;;;;;;;16.80;4.70;;;6.90;99.90;;;;;;5069267;28;20040;-55
2023/01/30 04:26:18;;;;;;;19.97;4.77;;;6.90;99.90;;;;;;5071208;28;20220;-55
2023/01/30 04:28:44;;;;;;;23.60;5.77;;;7.00;99.90;;;;;;5070990;28;20037;-55
2023/01/30 04:31:10;;;;;;;21.53;5.40;;;6.90;99.90;;;;;;5071639;28;20037;-57
2023/01/30 04:33:38;;;;;;;11.65;3.78;;;6.90;99.90;;;;;;5071167;28;20036;-55
2023/01/30 04:36:05;;;;;;;19.92;5.55;;;7.00;99.90;;;;;;5072069;28;20394;-54
2023/01/30 04:38:32;;;;;;;19.75;4.30;;;7.00;99.90;;;;;;5070667;28;20029;-56
2023/01/30 04:40:58;;;;;;;17.65;4.57;;;7.00;99.90;;;;;;5068546;28;20191;-53
2023/01/30 04:43:25;;;;;;;17.83;4.10;;;7.00;99.90;;;;;;5070408;28;20032;-53
2023/01/30 04:45:51;;;;;;;26.60;4.00;;;7.00;99.90;;;;;;5071466;28;20075;-55
2023/01/30 04:48:18;;;;;;;18.65;3.67;;;7.00;99.90;;;;;;5071208;28;20044;-55
2023/01/30 04:50:47;;;;;;;23.17;4.40;;;7.00;99.90;;;;;;5071281;28;20036;-54
2023/01/30 04:53:13;;;;;;;21.70;4.45;;;7.00;99.90;;;;;;5069569;28;20068;-56
2023/01/30 04:55:39;;;;;;;23.45;3.70;;;7.00;99.90;;;;;;5071545;28;20036;-53
2023/01/30 04:58:04;;;;;;;24.00;4.20;;;7.00;99.90;;;;;;5069246;28;20098;-55
2023/01/30 05:00:30;;;;;;;22.23;4.13;;;7.00;99.90;;;;;;5071514;28;20039;-56
2023/01/30 05:02:56;;;;;;;17.33;3.57;;;7.00;99.90;;;;;;5070401;28;20049;-56
2023/01/30 05:05:22;;;;;;;14.45;3.03;;;7.00;99.90;;;;;;5070514;28;20036;-53
2023/01/30 05:07:48;;;;;;;14.93;3.08;;;6.90;99.90;;;;;;5070450;28;20209;-54
2023/01/30 05:10:14;;;;;;;14.77;4.27;;;6.90;99.90;;;;;;5070829;28;20768;-53
2023/01/30 05:12:40;;;;;;;18.45;3.60;;;6.80;99.90;;;;;;5070710;28;20036;-53
2023/01/30 05:15:06;;;;;;;23.48;3.33;;;6.80;99.90;;;;;;5068534;28;20051;-57
2023/01/30 05:17:33;;;;;;;20.95;3.60;;;6.80;99.90;;;;;;5070405;28;20037;-53
2023/01/30 05:19:58;;;;;;;21.95;4.00;;;6.80;99.90;;;;;;5070899;28;20119;-56
2023/01/30 05:22:24;;;;;;;23.63;4.07;;;6.80;99.90;;;;;;5069990;28;20509;-56
2023/01/30 05:24:50;;;;;;;13.90;3.87;;;6.70;99.90;;;;;;5070201;28;20044;-53
2023/01/30 05:27:15;;;;;;;22.50;4.38;;;6.70;99.90;;;;;;5071011;28;20040;-53
2023/01/30 05:29:41;;;;;;;16.30;3.17;;;6.60;99.90;;;;;;5070278;28;20089;-57
2023/01/30 05:32:06;;;;;;;20.33;3.70;;;6.70;99.90;;;;;;5070543;28;20043;-52
2023/01/30 05:34:32;;;;;;;14.80;2.93;;;6.70;99.90;;;;;;5070439;28;20049;-53
2023/01/30 05:36:58;;;;;;;29.87;5.70;;;6.70;99.90;;;;;;5070115;28;20049;-56
2023/01/30 05:39:23;;;;;;;24.50;3.57;;;6.70;99.90;;;;;;5071053;28;20120;-55
2023/01/30 05:41:49;;;;;;;24.77;4.17;;;6.70;99.90;;;;;;5070064;28;20101;-53
2023/01/30 05:44:14;;;;;;;20.27;3.63;;;6.60;99.90;;;;;;5068689;28;20321;-53
2023/01/30 05:46:40;;;;;;;26.00;3.73;;;6.60;99.90;;;;;;5066895;28;20060;-54
2023/01/30 05:49:06;;;;;;;17.00;2.97;;;6.60;99.90;;;;;;5069915;28;20467;-57
2023/01/30 05:51:32;;;;;;;25.42;3.85;;;6.60;99.90;;;;;;5069748;28;20036;-57
2023/01/30 05:53:58;;;;;;;17.23;3.25;;;6.50;99.90;;;;;;5068971;28;20111;-55
2023/01/30 05:56:24;;;;;;;18.10;4.77;;;6.50;99.90;;;;;;5070086;28;20107;-53
2023/01/30 05:58:55;;;;;;;21.97;4.53;;;6.50;99.90;;;;;;5069928;28;20388;-55
2023/01/30 06:01:21;;;;;;;18.55;3.80;;;6.50;99.90;;;;;;5068666;28;20711;-53
2023/01/30 06:03:47;;;;;;;;;;;6.40;99.90;;;;;;5068440;28;20108;-54
2023/01/30 06:06:13;;;;;;;26.55;4.35;;;6.40;99.90;;;;;;5069438;28;20050;-53
2023/01/30 06:08:39;;;;;;;22.80;3.97;;;6.30;99.90;;;;;;5069549;28;20049;-55
2023/01/30 06:11:07;;;;;;;25.83;3.53;;;6.30;99.90;;;;;;5067499;28;20293;-56
2023/01/30 06:13:33;;;;;;;20.10;4.63;;;6.20;99.90;;;;;;5068806;28;20028;-55
2023/01/30 06:15:59;;;;;;;18.17;3.90;;;6.20;99.90;;;;;;5069470;28;20463;-53
2023/01/30 06:18:24;;;;;;;29.83;4.57;;;6.10;99.90;;;;;;5067150;28;20039;-52
2023/01/30 06:20:51;;;;;;;27.58;4.90;;;6.10;99.90;;;;;;5068896;28;20226;-53
2023/01/30 06:23:18;;;;;;;21.20;4.78;;;6.00;99.90;;;;;;5068757;28;20036;-53
2023/01/30 06:25:44;;;;;;;;;;;6.00;99.90;;;;;;5066946;28;20414;-55
2023/01/30 06:28:11;;;;;;;17.67;3.30;;;6.00;99.90;;;;;;5069122;28;19923;-55
2023/01/30 06:30:36;;;;;;;;;;;6.00;99.90;;;;;;5069250;28;20036;-54
2023/01/30 06:33:02;;;;;;;31.23;4.18;;;5.90;99.90;;;;;;5068606;28;19938;-55
2023/01/30 06:35:27;;;;;;;22.60;4.20;;;5.90;99.90;;;;;;5068762;28;20082;-53
2023/01/30 06:37:53;;;;;;;15.37;3.60;;;5.80;99.90;;;;;;5068631;28;20032;-55
2023/01/30 06:40:18;;;;;;;35.67;6.67;;;5.80;99.90;;;;;;5069170;28;20119;-56
2023/01/30 06:42:48;;;;;;;22.00;3.70;;;5.80;99.90;;;;;;5068798;28;20123;-54
2023/01/30 06:45:16;;;;;;;26.33;4.65;;;5.80;99.90;;;;;;5066834;28;20040;-52
2023/01/30 06:47:49;;;;;;;21.75;3.30;;;5.80;99.90;;;;;;5068624;28;20458;-55
2023/01/30 06:50:17;;;;;;;24.15;3.83;;;5.80;99.90;;;;;;5067059;28;20078;-53
2023/01/30 06:52:47;;;;;;;17.35;3.97;;;5.80;99.90;;;;;;5068870;28;20043;-53
2023/01/30 06:55:15;;;;;;;20.25;3.28;;;5.80;99.90;;;;;;5068066;28;20036;-54
2023/01/30 06:57:41;;;;;;;20.08;3.40;;;5.90;99.90;;;;;;5066125;28;20068;-53
2023/01/30 07:00:10;;;;;;;;;;;5.90;99.90;;;;;;5069193;28;20461;-54
2023/01/30 07:02:36;;;;;;;20.35;3.15;;;5.90;99.90;;;;;;5067980;28;19927;-56
2023/01/30 07:05:03;;;;;;;34.30;4.37;;;6.00;99.90;;;;;;5068033;28;20028;-52
2023/01/30 07:07:29;;;;;;;24.15;3.38;;;6.00;99.90;;;;;;5068834;28;20048;-53
2023/01/30 07:09:55;;;;;;;21.60;3.83;;;6.00;99.90;;;;;;5068870;28;20089;-54
2023/01/30 07:12:21;;;;;;;24.40;3.67;;;6.00;99.90;;;;;;5067444;28;20099;-52
2023/01/30 07:14:47;;;;;;;30.63;3.83;;;6.00;99.90;;;;;;5068425;28;20086;-58
2023/01/30 07:17:13;;;;;;;29.70;4.93;;;6.00;99.90;;;;;;5068122;28;20335;-53
2023/01/30 07:19:39;;;;;;;;;;;5.90;99.90;;;;;;5068530;28;20131;-53
2023/01/30 07:22:04;;;;;;;27.45;3.55;;;6.00;99.90;;;;;;5068371;28;20087;-55
2023/01/30 07:24:30;;;;;;;20.00;3.83;;;6.00;99.90;;;;;;5067781;28;20117;-52
2023/01/30 07:26:55;;;;;;;26.30;4.70;;;6.00;99.90;;;;;;5068391;28;20036;-53
2023/01/30 07:29:21;;;;;;;25.93;4.27;;;6.00;99.90;;;;;;5064485;28;20048;-57
2023/01/30 07:31:47;;;;;;;23.43;5.23;;;6.00;99.90;;;;;;5067760;28;20525;-55
2023/01/30 07:34:12;;;;;;;29.40;5.50;;;6.00;99.90;;;;;;5065397;28;20506;-54
2023/01/30 07:36:38;;;;;;;30.73;4.63;;;6.00;99.90;;;;;;5068035;28;20093;-56
2023/01/30 07:39:04;;;;;;;;;;;6.00;99.90;;;;;;5067644;28;20049;-53
2023/01/30 07:41:30;;;;;;;23.98;3.90;;;6.00;99.90;;;;;;5066934;28;19999;-54
2023/01/30 07:43:56;;;;;;;34.43;5.70;;;6.00;99.90;;;;;;5066725;28;20047;-55
2023/01/30 07:46:21;;;;;;;23.00;3.87;;;6.00;99.90;;;;;;5067394;28;20124;-55
2023/01/30 07:48:47;;;;;;;25.73;3.73;;;6.00;99.90;;;;;;5065681;28;20054;-53
2023/01/30 07:51:13;;;;;;;29.05;4.88;;;6.00;99.90;;;;;;5066906;28;20040;-53
2023/01/30 07:53:38;;;;;;;26.17;3.75;;;6.00;99.90;;;;;;5066558;28;20036;-53
2023/01/30 07:56:13;;;;;;;19.10;4.50;;;6.00;99.90;;;;;;5067542;28;20037;-55
2023/01/30 07:58:39;;;;;;;22.10;3.13;;;6.00;99.90;;;;;;5064429;28;20043;-56
2023/01/30 08:01:05;;;;;;;28.25;3.85;;;6.00;99.90;;;;;;5068452;28;20041;-55
2023/01/30 08:03:31;;;;;;;21.17;3.60;;;6.00;99.90;;;;;;5064046;28;20036;-58
2023/01/30 08:05:56;;;;;;;31.98;4.45;;;6.20;99.90;;;;;;5065656;28;20033;-53
2023/01/30 08:08:22;;;;;;;24.87;4.57;;;6.50;99.90;;;;;;5067100;28;20136;-57
2023/01/30 08:10:48;;;;;;;32.93;4.47;;;6.70;99.90;;;;;;5067585;28;20417;-56
2023/01/30 08:13:13;;;;;;;22.77;3.30;;;6.80;99.90;;;;;;5066409;28;20037;-55
2023/01/30 08:15:39;;;;;;;16.13;3.60;;;6.90;99.90;;;;;;5067471;28;20048;-52
2023/01/30 08:18:08;;;;;;;37.90;4.67;;;6.90;99.90;;;;;;5067910;28;20086;-55
2023/01/30 08:20:33;;;;;;;36.13;5.30;;;6.80;99.90;;;;;;5060545;28;20036;-56
2023/01/30 08:23:01;;;;;;;32.23;5.30;;;6.70;99.90;;;;;;5056246;28;20466;-55
2023/01/30 08:25:26;;;;;;;29.58;4.63;;;6.70;99.90;;;;;;5064209;28;20333;-57
2023/01/30 08:27:52;;;;;;;23.60;3.30;;;6.50;99.90;;;;;;5064048;28;20063;-57
2023/01/30 08:30:19;;;;;;;22.88;4.72;;;6.50;99.90;;;;;;5067511;28;20040;-58
2023/01/30 08:32:45;;;;;;;27.88;4.35;;;6.40;99.90;;;;;;5066118;28;20083;-58
2023/01/30 08:35:11;;;;;;;25.27;4.20;;;6.40;99.90;;;;;;5065561;28;20064;-56
2023/01/30 08:37:38;;;;;;;27.73;5.22;;;6.30;99.90;;;;;;5064897;28;20040;-57
2023/01/30 08:40:05;;;;;;;27.17;4.55;;;6.30;99.90;;;;;;5062345;28;20024;-55
2023/01/30 08:42:31;;;;;;;26.75;4.18;;;6.30;99.90;;;;;;5069336;28;20032;-57
2023/01/30 08:44:56;;;;;;;26.67;4.10;;;6.30;99.90;;;;;;5068543;28;20059;-53
2023/01/30 08:47:22;;;;;;;22.70;4.10;;;6.30;99.90;;;;;;5071887;28;20059;-55
2023/01/30 08:49:50;;;;;;;24.30;3.73;;;6.30;99.90;;;;;;5071843;28;20117;-54
2023/01/30 08:52:16;;;;;;;26.02;5.05;;;6.40;99.90;;;;;;5066974;28;20048;-56
2023/01/30 08:54:41;;;;;;;21.73;5.07;;;6.40;99.90;;;;;;5067162;28;20047;-56
2023/01/30 08:57:07;;;;;;;28.80;4.03;;;6.40;99.90;;;;;;5066006;28;20554;-54
2023/01/30 08:59:32;;;;;;;30.97;5.20;;;6.40;99.90;;;;;;5068793;28;20051;-55
2023/01/30 09:01:58;;;;;;;24.17;3.60;;;6.40;99.90;;;;;;5066075;28;20090;-54
2023/01/30 09:04:25;;;;;;;25.40;4.20;;;6.40;99.90;;;;;;5066638;28;20032;-58
2023/01/30 09:06:51;;;;;;;34.97;4.65;;;6.40;99.90;;;;;;5069264;28;20041;-57
2023/01/30 09:09:16;;;;;;;26.40;3.90;;;6.40;99.90;;;;;;5067662;28;20032;-57
2023/01/30 09:11:42;;;;;;;33.22;4.57;;;6.40;99.90;;;;;;5068319;28;20105;-57
2023/01/30 09:14:08;;;;;;;19.03;3.83;;;6.40;99.90;;;;;;5068151;28;20142;-56
2023/01/30 09:16:33;;;;;;;36.90;5.93;;;6.50;99.90;;;;;;5065331;28;20287;-56
2023/01/30 09:18:59;;;;;;;25.60;4.40;;;6.50;99.90;;;;;;5059939;28;20048;-59
2023/01/30 09:21:25;;;;;;;25.53;4.23;;;6.50;99.90;;;;;;5071069;28;20040;-56
2023/01/30 09:23:50;;;;;;;34.90;4.27;;;6.50;99.90;;;;;;5070448;28;20416;-57
2023/01/30 09:26:16;;;;;;;16.10;3.63;;;6.50;99.90;;;;;;5076701;28;20457;-57
2023/01/30 09:28:41;;;;;;;28.00;4.53;;;6.50;99.90;;;;;;5069488;28;20089;-56
2023/01/30 09:31:07;;;;;;;25.77;4.33;;;6.50;99.90;;;;;;5070077;28;20086;-58
2023/01/30 09:33:33;;;;;;;26.60;3.97;;;6.60;99.90;;;;;;5073861;28;20080;-57
2023/01/30 09:35:59;;;;;;;23.53;3.80;;;6.70;99.90;;;;;;5070320;28;20706;-57
2023/01/30 09:38:24;;;;;;;26.77;4.22;;;6.80;99.90;;;;;;5071747;28;20039;-56
2023/01/30 09:41:03;;;;;;;28.05;3.50;;;6.80;99.90;;;;;;5077616;28;20706;-57
2023/01/30 09:44:07;;;;;;;24.90;4.20;;;6.80;99.90;;;;;;5072485;28;20037;-58
2023/01/30 09:47:04;;;;;;;24.15;4.43;;;6.80;99.90;;;;;;5071360;28;20032;-58
2023/01/30 09:49:35;;;;;;;16.83;3.67;;;6.90;99.90;;;;;;5071505;28;20040;-57
2023/01/30 09:52:25;;;;;;;33.38;4.10;;;6.90;99.90;;;;;;5069070;28;20105;-58
2023/01/30 09:54:59;;;;;;;31.75;4.55;;;7.00;99.90;;;;;;5085648;28;20064;-58
2023/01/30 09:57:25;;;;;;;30.27;4.30;;;7.20;99.90;;;;;;5074189;28;20068;-57
2023/01/30 10:00:07;;;;;;;24.05;4.40;;;7.40;99.90;;;;;;5072351;28;20083;-58
2023/01/30 10:03:00;;;;;;;25.25;4.70;;;7.80;99.90;;;;;;5068169;28;20040;-58
2023/01/30 10:06:12;;;;;;;24.33;4.35;;;8.00;99.90;;;;;;5076876;28;20082;-58
2023/01/30 10:08:50;;;;;;;30.45;4.30;;;8.00;99.90;;;;;;5065038;28;20512;-58
2023/01/30 10:11:54;;;;;;;31.30;4.55;;;8.00;99.90;;;;;;5069514;28;20040;-58
2023/01/30 10:14:54;;;;;;;27.55;4.57;;;7.80;99.90;;;;;;5066048;28;20032;-57
2023/01/30 10:17:36;;;;;;;24.90;3.85;;;7.70;99.90;;;;;;5071882;28;20558;-57
2023/01/30 10:20:11;;;;;;;25.00;5.95;;;7.60;99.90;;;;;;5069883;28;20043;-57
2023/01/30 10:22:42;;;;;;;31.42;5.35;;;7.50;99.90;;;;;;5074827;28;20115;-56
2023/01/30 10:25:23;;;;;;;34.38;5.03;;;7.40;99.90;;;;;;5073199;28;20068;-58
2023/01/30 10:28:00;;;;;;;31.25;5.65;;;7.40;99.90;;;;;;5070653;28;20052;-57
2023/01/30 10:30:25;;;;;;;;;;;7.50;99.90;;;;;;5075174;28;20485;-57
2023/01/30 10:33:01;;;;;;;32.20;5.05;;;7.60;99.90;;;;;;5076241;28;19920;-59
2023/01/30 10:35:32;;;;;;;25.73;4.38;;;7.70;99.90;;;;;;5076861;28;20067;-58
2023/01/30 10:38:19;;;;;;;22.52;3.97;;;7.90;99.90;;;;;;5071739;28;20074;-57
2023/01/30 10:40:53;;;;;;;24.35;3.63;;;8.00;99.90;;;;;;5075150;28;20080;-58
2023/01/30 10:43:26;;;;;;;24.65;5.00;;;8.30;99.90;;;;;;5073067;28;20086;-58
2023/01/30 10:46:20;;;;;;;23.60;4.18;;;8.30;99.90;;;;;;5071976;28;20044;-59
2023/01/30 10:49:01;;;;;;;24.75;4.97;;;8.30;99.90;;;;;;5074059;28;20047;-57
2023/01/30 10:51:38;;;;;;;25.45;4.47;;;8.20;99.90;;;;;;5070610;28;20047;-58
2023/01/30 10:54:12;;;;;;;;;;;8.10;99.90;;;;;;5068092;28;20544;-58
2023/01/30 10:57:15;;;;;;;27.60;5.22;;;8.00;99.90;;;;;;5069573;28;20383;-58
2023/01/30 11:00:04;;;;;;;25.02;3.85;;;7.90;99.90;;;;;;5076438;28;20090;-58
2023/01/30 11:03:03;;;;;;;21.55;3.53;;;7.80;99.90;;;;;;5071072;28;20320;-55
2023/01/30 11:05:46;;;;;;;27.90;4.93;;;7.80;99.90;;;;;;5067253;28;20040;-56
2023/01/30 11:08:44;;;;;;;24.40;4.55;;;7.90;99.90;;;;;;5070622;28;20048;-58
2023/01/30 11:11:25;;;;;;;;;;;7.90;99.90;;;;;;5045250;28;20062;-56
2023/01/30 11:14:00;;;;;;;24.08;4.05;;;7.90;99.90;;;;;;5071911;28;19923;-58
2023/01/30 11:16:26;;;;;;;20.77;4.82;;;7.90;99.90;;;;;;5071936;28;20040;-58
2023/01/30 11:18:52;;;;;;;30.55;5.07;;;7.90;99.90;;;;;;5070699;28;20425;-59
2023/01/30 11:21:30;;;;;;;29.17;5.03;;;7.90;99.90;;;;;;5074798;28;20119;-58
2023/01/30 11:23:55;;;;;;;27.70;4.38;;;8.00;99.90;;;;;;5070780;28;20044;-54
2023/01/30 11:26:35;;;;;;;31.90;3.87;;;8.10;99.90;;;;;;5070729;28;20386;-57
2023/01/30 11:29:28;;;;;;;22.23;4.18;;;8.30;99.90;;;;;;5066554;28;20328;-58
2023/01/30 11:31:54;;;;;;;32.05;4.88;;;8.50;99.90;;;;;;5068702;28;20127;-57
2023/01/30 11:34:21;;;;;;;24.67;3.97;;;8.60;99.90;;;;;;5072375;28;20036;-59
2023/01/30 11:36:48;;;;;;;26.15;3.85;;;8.50;99.90;;;;;;5066097;28;20059;-57
2023/01/30 11:39:17;;;;;;;18.10;3.33;;;8.50;99.90;;;;;;5070910;28;20148;-57
2023/01/30 11:42:00;;;;;;;20.10;2.88;;;8.70;99.90;;;;;;5071446;28;20067;-58
2023/01/30 11:44:28;;;;;;;21.20;4.72;;;9.10;99.90;;;;;;5072881;28;20374;-58
2023/01/30 11:46:58;;;;;;;25.92;4.75;;;9.20;99.90;;;;;;5072060;28;20067;-57
2023/01/30 11:49:27;;;;;;;30.73;5.15;;;9.20;99.90;;;;;;5071636;28;20052;-56
2023/01/30 11:51:53;;;;;;;24.45;4.82;;;9.10;99.90;;;;;;5074423;28;20590;-57
2023/01/30 11:54:26;;;;;;;37.58;6.45;;;9.00;99.90;;;;;;5073292;28;20072;-58
2023/01/30 11:56:55;;;;;;;35.22;5.00;;;8.90;99.90;;;;;;5070860;28;20083;-57
2023/01/30 11:59:27;;;;;;;21.88;3.65;;;8.70;99.90;;;;;;5073376;28;20045;-58
2023/01/30 12:02:12;;;;;;;23.38;3.85;;;8.70;99.90;;;;;;5073580;28;20051;-58
2023/01/30 12:04:43;;;;;;;19.98;4.50;;;8.60;99.90;;;;;;5070808;28;20035;-58
2023/01/30 12:07:24;;;;;;;25.33;4.68;;;8.80;99.90;;;;;;5073626;28;20048;-58
2023/01/30 12:09:51;;;;;;;20.00;4.18;;;9.10;99.90;;;;;;5075571;28;20079;-59
2023/01/30 12:12:26;;;;;;;17.02;5.10;;;9.20;99.90;;;;;;5066832;28;20044;-56
2023/01/30 12:14:56;;;;;;;19.33;3.10;;;9.00;99.90;;;;;;5065538;28;20111;-56
2023/01/30 12:17:33;;;;;;;18.42;3.10;;;8.70;99.90;;;;;;5069791;28;20135;-57
2023/01/30 12:20:25;;;;;;;10.48;1.25;;;8.50;99.90;;;;;;5071543;28;20044;-56
2023/01/30 12:23:02;;;;;;;13.02;1.52;;;8.30;99.90;;;;;;5041636;28;20418;-58
2023/01/30 12:25:42;;;;;;;15.23;1.95;;;8.00;99.90;;;;;;5077770;28;20036;-57
2023/01/30 12:28:38;;;;;;;17.10;2.72;;;7.80;99.90;;;;;;5075504;28;20097;-57
2023/01/30 12:31:11;;;;;;;21.58;3.58;;;7.70;99.90;;;;;;5043050;28;20052;-57
2023/01/30 12:33:36;;;;;;;17.88;3.25;;;7.50;99.90;;;;;;5076653;28;20049;-57
2023/01/30 12:36:34;;;;;;;14.10;2.47;;;7.40;99.90;;;;;;5073793;28;20044;-59
2023/01/30 12:39:28;;;;;;;14.38;2.25;;;7.30;99.90;;;;;;5080980;28;20686;-57
2023/01/30 12:42:21;;;;;;;13.15;1.45;;;7.50;99.90;;;;;;5078332;28;20460;-58
2023/01/30 12:45:05;;;;;;;12.93;1.35;;;8.10;99.90;;;;;;5077003;28;20520;-57
2023/01/30 12:48:02;;;;;;;11.27;1.67;;;8.70;99.90;;;;;;5071499;28;20063;-55
2023/01/30 12:50:55;;;;;;;11.88;1.73;;;9.00;99.90;;;;;;5076277;28;20041;-58
2023/01/30 12:53:29;;;;;;;12.30;2.40;;;9.00;99.90;;;;;;5089736;28;20089;-58
2023/01/30 12:56:10;;;;;;;15.00;2.40;;;9.00;99.90;;;;;;5077391;28;20041;-58
2023/01/30 12:58:44;;;;;;;21.10;4.10;;;9.00;99.90;;;;;;5073879;28;20454;-57
2023/01/30 13:01:36;;;;;;;17.45;2.67;;;8.90;99.90;;;;;;5072705;28;20032;-58
2023/01/30 13:04:56;;;;;;;11.75;2.25;;;9.10;99.90;;;;;;5071947;28;20044;-58
2023/01/30 13:07:22;;;;;;;19.45;3.25;;;9.30;99.90;;;;;;5001038;28;20042;-57
2023/01/30 13:10:20;;;;;;;13.90;2.20;;;9.30;99.90;;;;;;5012591;28;20069;-58
2023/01/30 13:13:10;;;;;;;23.20;3.15;;;9.30;99.90;;;;;;5001472;28;20087;-57